sensor_id;sensor_type;location;lat;lon;timestamp;temperature;humidity
21502;DHT22;27639;48.674;9.242;2024-02-21T00:00:51;10.40;54.70
21502;DHT22;27639;48.674;9.242;2024-02-21T00:03:16;10.30;54.70
21502;DHT22;27639;48.674;9.242;2024-02-21T00:05:42;10.30;55.00
21502;DHT22;27639;48.674;9.242;2024-02-21T00:08:08;10.30;55.00
21502;DHT22;27639;48.674;9.242;2024-02-21T00:10:33;10.30;55.10
21502;DHT22;27639;48.674;9.242;2024-02-21T00:13:00;10.30;55.00
21502;DHT22;27639;48.674;9.242;2024-02-21T00:15:26;10.30;55.00
21502;DHT22;27639;48.674;9.242;2024-02-21T00:17:52;10.30;55.00
21502;DHT22;27639;48.674;9.242;2024-02-21T00:20:17;10.30;55.00
21502;DHT22;27639;48.674;9.242;2024-02-21T00:22:44;10.20;54.90
21502;DHT22;27639;48.674;9.242;2024-02-21T00:25:10;10.20;54.90
21502;DHT22;27639;48.674;9.242;2024-02-21T00:27:35;10.20;54.80
21502;DHT22;27639;48.674;9.242;2024-02-21T00:30:02;10.20;54.80
21502;DHT22;27639;48.674;9.242;2024-02-21T00:32:27;10.30;54.80
21502;DHT22;27639;48.674;9.242;2024-02-21T00:34:53;10.30;54.70
21502;DHT22;27639;48.674;9.242;2024-02-21T00:37:18;10.20;54.60
21502;DHT22;27639;48.674;9.242;2024-02-21T00:39:44;10.30;54.70
21502;DHT22;27639;48.674;9.242;2024-02-21T00:42:10;10.30;54.60
21502;DHT22;27639;48.674;9.242;2024-02-21T00:44:35;10.20;54.40
21502;DHT22;27639;48.674;9.242;2024-02-21T00:47:01;10.20;54.40
21502;DHT22;27639;48.674;9.242;2024-02-21T00:49:26;10.20;54.40
21502;DHT22;27639;48.674;9.242;2024-02-21T00:51:52;10.30;54.50
21502;DHT22;27639;48.674;9.242;2024-02-21T00:54:17;10.20;54.40
21502;DHT22;27639;48.674;9.242;2024-02-21T00:56:43;10.30;54.50
21502;DHT22;27639;48.674;9.242;2024-02-21T00:59:09;10.20;54.40
21502;DHT22;27639;48.674;9.242;2024-02-21T01:01:34;10.30;54.50
21502;DHT22;27639;48.674;9.242;2024-02-21T01:04:00;10.20;54.30
21502;DHT22;27639;48.674;9.242;2024-02-21T01:06:25;10.30;54.50
21502;DHT22;27639;48.674;9.242;2024-02-21T01:08:51;10.30;54.50
21502;DHT22;27639;48.674;9.242;2024-02-21T01:11:17;10.20;54.40
21502;DHT22;27639;48.674;9.242;2024-02-21T01:13:43;10.20;55.10
21502;DHT22;27639;48.674;9.242;2024-02-21T01:16:09;10.20;54.50
21502;DHT22;27639;48.674;9.242;2024-02-21T01:18:37;10.10;54.50
21502;DHT22;27639;48.674;9.242;2024-02-21T01:21:03;10.10;54.50
21502;DHT22;27639;48.674;9.242;2024-02-21T01:23:35;10.10;54.50
21502;DHT22;27639;48.674;9.242;2024-02-21T01:26:02;10.10;54.60
21502;DHT22;27639;48.674;9.242;2024-02-21T01:28:27;10.20;54.60
21502;DHT22;27639;48.674;9.242;2024-02-21T01:30:53;10.10;54.50
21502;DHT22;27639;48.674;9.242;2024-02-21T01:33:19;10.10;54.50
21502;DHT22;27639;48.674;9.242;2024-02-21T01:35:44;10.10;54.50
21502;DHT22;27639;48.674;9.242;2024-02-21T01:38:12;10.20;54.60
21502;DHT22;27639;48.674;9.242;2024-02-21T01:40:37;10.10;54.50
21502;DHT22;27639;48.674;9.242;2024-02-21T01:43:03;10.10;54.50
21502;DHT22;27639;48.674;9.242;2024-02-21T01:45:28;10.10;54.60
21502;DHT22;27639;48.674;9.242;2024-02-21T01:47:55;10.10;54.50
21502;DHT22;27639;48.674;9.242;2024-02-21T01:50:21;10.10;54.50
21502;DHT22;27639;48.674;9.242;2024-02-21T01:52:49;10.10;54.50
21502;DHT22;27639;48.674;9.242;2024-02-21T01:55:16;10.10;54.60
21502;DHT22;27639;48.674;9.242;2024-02-21T01:57:43;10.00;54.50
21502;DHT22;27639;48.674;9.242;2024-02-21T02:00:12;10.00;54.50
21502;DHT22;27639;48.674;9.242;2024-02-21T02:02:38;10.00;54.50
21502;DHT22;27639;48.674;9.242;2024-02-21T02:05:04;9.90;55.40
21502;DHT22;27639;48.674;9.242;2024-02-21T02:07:31;9.90;55.50
21502;DHT22;27639;48.674;9.242;2024-02-21T02:09:57;9.90;55.50
21502;DHT22;27639;48.674;9.242;2024-02-21T02:12:22;9.80;55.50
21502;DHT22;27639;48.674;9.242;2024-02-21T02:15:01;9.90;55.60
21502;DHT22;27639;48.674;9.242;2024-02-21T02:17:30;9.90;55.40
21502;DHT22;27639;48.674;9.242;2024-02-21T02:19:56;9.90;55.60
21502;DHT22;27639;48.674;9.242;2024-02-21T02:22:25;9.90;55.50
21502;DHT22;27639;48.674;9.242;2024-02-21T02:24:53;9.90;55.50
21502;DHT22;27639;48.674;9.242;2024-02-21T02:27:18;10.00;54.60
21502;DHT22;27639;48.674;9.242;2024-02-21T02:29:44;10.00;54.50
21502;DHT22;27639;48.674;9.242;2024-02-21T02:32:10;10.00;54.40
21502;DHT22;27639;48.674;9.242;2024-02-21T02:34:35;10.00;54.40
21502;DHT22;27639;48.674;9.242;2024-02-21T02:37:01;10.10;54.40
21502;DHT22;27639;48.674;9.242;2024-02-21T02:39:26;10.10;54.30
21502;DHT22;27639;48.674;9.242;2024-02-21T02:41:52;10.10;54.30
21502;DHT22;27639;48.674;9.242;2024-02-21T02:44:17;10.10;54.20
21502;DHT22;27639;48.674;9.242;2024-02-21T02:46:43;10.10;54.10
21502;DHT22;27639;48.674;9.242;2024-02-21T02:49:09;10.10;54.20
21502;DHT22;27639;48.674;9.242;2024-02-21T02:51:34;10.00;54.10
21502;DHT22;27639;48.674;9.242;2024-02-21T02:54:00;10.00;54.10
21502;DHT22;27639;48.674;9.242;2024-02-21T02:56:25;10.00;54.20
21502;DHT22;27639;48.674;9.242;2024-02-21T02:58:51;10.00;54.80
21502;DHT22;27639;48.674;9.242;2024-02-21T03:01:17;10.00;54.20
21502;DHT22;27639;48.674;9.242;2024-02-21T03:03:42;10.10;54.10
21502;DHT22;27639;48.674;9.242;2024-02-21T03:06:08;10.10;54.70
21502;DHT22;27639;48.674;9.242;2024-02-21T03:08:33;10.10;54.00
21502;DHT22;27639;48.674;9.242;2024-02-21T03:10:59;10.20;54.00
21502;DHT22;27639;48.674;9.242;2024-02-21T03:13:25;10.20;54.00
21502;DHT22;27639;48.674;9.242;2024-02-21T03:15:51;10.20;54.10
21502;DHT22;27639;48.674;9.242;2024-02-21T03:18:16;10.20;54.00
21502;DHT22;27639;48.674;9.242;2024-02-21T03:20:42;10.20;54.00
21502;DHT22;27639;48.674;9.242;2024-02-21T03:23:08;10.20;54.10
21502;DHT22;27639;48.674;9.242;2024-02-21T03:25:33;10.20;54.20
21502;DHT22;27639;48.674;9.242;2024-02-21T03:27:59;10.20;54.20
21502;DHT22;27639;48.674;9.242;2024-02-21T03:30:24;10.10;54.00
21502;DHT22;27639;48.674;9.242;2024-02-21T03:32:51;10.10;54.00
21502;DHT22;27639;48.674;9.242;2024-02-21T03:35:16;10.10;54.10
21502;DHT22;27639;48.674;9.242;2024-02-21T03:37:42;10.10;54.20
21502;DHT22;27639;48.674;9.242;2024-02-21T03:40:10;10.10;54.20
21502;DHT22;27639;48.674;9.242;2024-02-21T03:42:37;10.10;54.20
21502;DHT22;27639;48.674;9.242;2024-02-21T03:45:03;10.20;54.30
21502;DHT22;27639;48.674;9.242;2024-02-21T03:47:29;10.20;54.10
21502;DHT22;27639;48.674;9.242;2024-02-21T03:49:54;10.30;54.10
21502;DHT22;27639;48.674;9.242;2024-02-21T03:52:20;10.30;54.00
21502;DHT22;27639;48.674;9.242;2024-02-21T03:54:46;10.40;54.00
21502;DHT22;27639;48.674;9.242;2024-02-21T03:57:11;10.40;54.10
21502;DHT22;27639;48.674;9.242;2024-02-21T03:59:37;10.40;54.00
21502;DHT22;27639;48.674;9.242;2024-02-21T04:02:05;10.40;54.20
21502;DHT22;27639;48.674;9.242;2024-02-21T04:04:36;10.40;54.20
21502;DHT22;27639;48.674;9.242;2024-02-21T04:07:03;10.40;54.20
21502;DHT22;27639;48.674;9.242;2024-02-21T04:09:32;10.40;54.20
21502;DHT22;27639;48.674;9.242;2024-02-21T04:11:59;10.30;54.90
21502;DHT22;27639;48.674;9.242;2024-02-21T04:14:25;10.30;54.40
21502;DHT22;27639;48.674;9.242;2024-02-21T04:16:50;10.30;54.60
21502;DHT22;27639;48.674;9.242;2024-02-21T04:19:16;10.30;54.60
21502;DHT22;27639;48.674;9.242;2024-02-21T04:21:42;10.20;54.60
21502;DHT22;27639;48.674;9.242;2024-02-21T04:24:07;10.30;54.70
21502;DHT22;27639;48.674;9.242;2024-02-21T04:26:33;10.30;54.70
21502;DHT22;27639;48.674;9.242;2024-02-21T04:28:59;10.30;54.60
21502;DHT22;27639;48.674;9.242;2024-02-21T04:31:25;10.30;54.50
21502;DHT22;27639;48.674;9.242;2024-02-21T04:33:51;10.30;54.50
21502;DHT22;27639;48.674;9.242;2024-02-21T04:36:17;10.30;54.40
21502;DHT22;27639;48.674;9.242;2024-02-21T04:38:42;10.30;54.30
21502;DHT22;27639;48.674;9.242;2024-02-21T04:41:08;10.30;54.30
21502;DHT22;27639;48.674;9.242;2024-02-21T04:43:33;10.30;54.30
21502;DHT22;27639;48.674;9.242;2024-02-21T04:45:59;10.30;54.20
21502;DHT22;27639;48.674;9.242;2024-02-21T04:48:25;10.30;54.20
21502;DHT22;27639;48.674;9.242;2024-02-21T04:50:51;10.20;54.10
21502;DHT22;27639;48.674;9.242;2024-02-21T04:53:17;10.20;54.10
21502;DHT22;27639;48.674;9.242;2024-02-21T04:55:42;10.10;54.00
21502;DHT22;27639;48.674;9.242;2024-02-21T04:58:08;10.10;53.90
21502;DHT22;27639;48.674;9.242;2024-02-21T05:00:34;10.10;54.00
21502;DHT22;27639;48.674;9.242;2024-02-21T05:02:59;10.10;54.00
21502;DHT22;27639;48.674;9.242;2024-02-21T05:05:25;10.10;54.00
21502;DHT22;27639;48.674;9.242;2024-02-21T05:07:50;10.10;54.00
21502;DHT22;27639;48.674;9.242;2024-02-21T05:10:16;10.00;53.90
21502;DHT22;27639;48.674;9.242;2024-02-21T05:12:43;10.00;53.80
21502;DHT22;27639;48.674;9.242;2024-02-21T05:15:08;10.10;53.90
21502;DHT22;27639;48.674;9.242;2024-02-21T05:17:34;10.10;53.90
21502;DHT22;27639;48.674;9.242;2024-02-21T05:19:59;10.00;53.70
21502;DHT22;27639;48.674;9.242;2024-02-21T05:22:25;10.00;53.80
21502;DHT22;27639;48.674;9.242;2024-02-21T05:24:50;10.00;53.80
21502;DHT22;27639;48.674;9.242;2024-02-21T05:27:16;9.90;54.60
21502;DHT22;27639;48.674;9.242;2024-02-21T05:29:41;9.80;54.70
21502;DHT22;27639;48.674;9.242;2024-02-21T05:32:07;9.80;54.80
21502;DHT22;27639;48.674;9.242;2024-02-21T05:34:33;9.70;54.80
21502;DHT22;27639;48.674;9.242;2024-02-21T05:36:58;9.60;54.80
21502;DHT22;27639;48.674;9.242;2024-02-21T05:39:25;9.50;54.90
21502;DHT22;27639;48.674;9.242;2024-02-21T05:41:51;9.50;55.10
21502;DHT22;27639;48.674;9.242;2024-02-21T05:44:17;9.50;55.10
21502;DHT22;27639;48.674;9.242;2024-02-21T05:46:42;9.40;55.10
21502;DHT22;27639;48.674;9.242;2024-02-21T05:49:08;9.40;55.30
21502;DHT22;27639;48.674;9.242;2024-02-21T05:51:34;9.30;55.20
21502;DHT22;27639;48.674;9.242;2024-02-21T05:54:00;9.30;55.30
21502;DHT22;27639;48.674;9.242;2024-02-21T05:56:26;9.30;56.00
21502;DHT22;27639;48.674;9.242;2024-02-21T05:58:52;9.30;55.40
21502;DHT22;27639;48.674;9.242;2024-02-21T06:01:17;9.20;55.40
21502;DHT22;27639;48.674;9.242;2024-02-21T06:03:43;9.20;55.40
21502;DHT22;27639;48.674;9.242;2024-02-21T06:06:09;9.20;55.50
21502;DHT22;27639;48.674;9.242;2024-02-21T06:08:34;9.20;55.50
21502;DHT22;27639;48.674;9.242;2024-02-21T06:11:00;9.20;55.60
21502;DHT22;27639;48.674;9.242;2024-02-21T06:13:26;9.20;55.50
21502;DHT22;27639;48.674;9.242;2024-02-21T06:15:52;9.20;55.50
21502;DHT22;27639;48.674;9.242;2024-02-21T06:18:18;9.20;55.50
21502;DHT22;27639;48.674;9.242;2024-02-21T06:20:44;9.20;55.40
21502;DHT22;27639;48.674;9.242;2024-02-21T06:23:10;9.20;55.40
21502;DHT22;27639;48.674;9.242;2024-02-21T06:25:35;9.20;55.40
21502;DHT22;27639;48.674;9.242;2024-02-21T06:28:01;9.30;55.40
21502;DHT22;27639;48.674;9.242;2024-02-21T06:30:27;9.30;55.40
21502;DHT22;27639;48.674;9.242;2024-02-21T06:32:52;9.20;55.30
21502;DHT22;27639;48.674;9.242;2024-02-21T06:35:21;9.30;55.40
21502;DHT22;27639;48.674;9.242;2024-02-21T06:37:47;9.30;55.50
21502;DHT22;27639;48.674;9.242;2024-02-21T06:40:20;9.30;55.50
21502;DHT22;27639;48.674;9.242;2024-02-21T06:42:46;9.30;55.40
21502;DHT22;27639;48.674;9.242;2024-02-21T06:45:11;9.30;55.40
21502;DHT22;27639;48.674;9.242;2024-02-21T06:47:37;9.30;55.40
21502;DHT22;27639;48.674;9.242;2024-02-21T06:50:03;9.30;55.20
21502;DHT22;27639;48.674;9.242;2024-02-21T06:52:28;9.30;55.20
21502;DHT22;27639;48.674;9.242;2024-02-21T06:54:54;9.20;55.00
21502;DHT22;27639;48.674;9.242;2024-02-21T06:57:20;9.30;55.30
21502;DHT22;27639;48.674;9.242;2024-02-21T06:59:45;9.20;55.40
21502;DHT22;27639;48.674;9.242;2024-02-21T07:02:11;9.20;55.30
21502;DHT22;27639;48.674;9.242;2024-02-21T07:04:36;9.20;56.10
21502;DHT22;27639;48.674;9.242;2024-02-21T07:07:02;9.20;55.50
21502;DHT22;27639;48.674;9.242;2024-02-21T07:09:27;9.20;55.60
21502;DHT22;27639;48.674;9.242;2024-02-21T07:11:57;9.20;55.60
21502;DHT22;27639;48.674;9.242;2024-02-21T07:14:23;9.20;55.70
21502;DHT22;27639;48.674;9.242;2024-02-21T07:16:48;9.30;55.80
21502;DHT22;27639;48.674;9.242;2024-02-21T07:19:14;9.40;56.00
21502;DHT22;27639;48.674;9.242;2024-02-21T07:21:39;9.40;55.70
21502;DHT22;27639;48.674;9.242;2024-02-21T07:24:07;9.50;55.90
21502;DHT22;27639;48.674;9.242;2024-02-21T07:26:33;9.50;56.00
21502;DHT22;27639;48.674;9.242;2024-02-21T07:28:58;9.50;55.90
21502;DHT22;27639;48.674;9.242;2024-02-21T07:31:24;9.60;55.90
21502;DHT22;27639;48.674;9.242;2024-02-21T07:33:50;9.70;56.00
21502;DHT22;27639;48.674;9.242;2024-02-21T07:36:15;9.80;56.40
21502;DHT22;27639;48.674;9.242;2024-02-21T07:38:49;9.80;56.60
21502;DHT22;27639;48.674;9.242;2024-02-21T07:41:14;10.00;56.20
21502;DHT22;27639;48.674;9.242;2024-02-21T07:43:40;10.10;56.40
21502;DHT22;27639;48.674;9.242;2024-02-21T07:46:05;10.20;56.40
21502;DHT22;27639;48.674;9.242;2024-02-21T07:48:31;10.40;56.20
21502;DHT22;27639;48.674;9.242;2024-02-21T07:50:57;10.50;55.70
21502;DHT22;27639;48.674;9.242;2024-02-21T07:53:22;10.50;55.10
21502;DHT22;27639;48.674;9.242;2024-02-21T07:55:48;10.50;54.60
21502;DHT22;27639;48.674;9.242;2024-02-21T07:58:13;10.50;54.20
21502;DHT22;27639;48.674;9.242;2024-02-21T08:00:39;10.50;54.20
21502;DHT22;27639;48.674;9.242;2024-02-21T08:03:04;10.60;54.10
21502;DHT22;27639;48.674;9.242;2024-02-21T08:05:30;10.70;54.00
21502;DHT22;27639;48.674;9.242;2024-02-21T08:07:55;10.70;53.90
21502;DHT22;27639;48.674;9.242;2024-02-21T08:10:21;10.80;53.80
21502;DHT22;27639;48.674;9.242;2024-02-21T08:12:46;10.90;53.70
21502;DHT22;27639;48.674;9.242;2024-02-21T08:15:12;10.90;53.40
21502;DHT22;27639;48.674;9.242;2024-02-21T08:17:38;11.00;53.40
21502;DHT22;27639;48.674;9.242;2024-02-21T08:20:06;10.90;53.70
21502;DHT22;27639;48.674;9.242;2024-02-21T08:22:32;10.90;53.20
21502;DHT22;27639;48.674;9.242;2024-02-21T08:24:58;10.90;53.10
21502;DHT22;27639;48.674;9.242;2024-02-21T08:27:23;11.00;53.00
21502;DHT22;27639;48.674;9.242;2024-02-21T08:29:49;11.00;52.90
21502;DHT22;27639;48.674;9.242;2024-02-21T08:32:14;11.00;52.80
21502;DHT22;27639;48.674;9.242;2024-02-21T08:34:40;11.00;52.80
21502;DHT22;27639;48.674;9.242;2024-02-21T08:37:05;11.10;52.70
21502;DHT22;27639;48.674;9.242;2024-02-21T08:39:31;11.10;52.60
21502;DHT22;27639;48.674;9.242;2024-02-21T08:41:57;11.20;52.70
21502;DHT22;27639;48.674;9.242;2024-02-21T08:44:23;11.30;53.20
21502;DHT22;27639;48.674;9.242;2024-02-21T08:46:51;11.30;52.30
21502;DHT22;27639;48.674;9.242;2024-02-21T08:49:17;11.40;52.40
21502;DHT22;27639;48.674;9.242;2024-02-21T08:51:42;11.50;52.10
21502;DHT22;27639;48.674;9.242;2024-02-21T08:54:08;11.50;51.70
21502;DHT22;27639;48.674;9.242;2024-02-21T08:56:34;11.60;51.50
21502;DHT22;27639;48.674;9.242;2024-02-21T08:59:01;11.70;51.60
21502;DHT22;27639;48.674;9.242;2024-02-21T09:01:26;11.80;51.70
21502;DHT22;27639;48.674;9.242;2024-02-21T09:03:52;11.90;51.70
21502;DHT22;27639;48.674;9.242;2024-02-21T09:06:19;12.00;51.50
21502;DHT22;27639;48.674;9.242;2024-02-21T09:08:45;12.00;51.30
21502;DHT22;27639;48.674;9.242;2024-02-21T09:11:11;12.00;51.20
21502;DHT22;27639;48.674;9.242;2024-02-21T09:13:37;12.20;51.00
21502;DHT22;27639;48.674;9.242;2024-02-21T09:16:02;12.20;50.90
21502;DHT22;27639;48.674;9.242;2024-02-21T09:18:29;12.30;50.80
21502;DHT22;27639;48.674;9.242;2024-02-21T09:20:55;12.40;50.80
21502;DHT22;27639;48.674;9.242;2024-02-21T09:23:24;12.40;50.70
21502;DHT22;27639;48.674;9.242;2024-02-21T09:25:49;12.50;50.40
21502;DHT22;27639;48.674;9.242;2024-02-21T09:28:15;12.60;50.50
21502;DHT22;27639;48.674;9.242;2024-02-21T09:30:40;12.60;50.30
21502;DHT22;27639;48.674;9.242;2024-02-21T09:33:06;12.70;49.90
21502;DHT22;27639;48.674;9.242;2024-02-21T09:35:32;12.70;50.00
21502;DHT22;27639;48.674;9.242;2024-02-21T09:37:59;12.70;49.80
21502;DHT22;27639;48.674;9.242;2024-02-21T09:40:25;12.70;49.90
21502;DHT22;27639;48.674;9.242;2024-02-21T09:42:59;12.70;50.00
21502;DHT22;27639;48.674;9.242;2024-02-21T09:45:28;12.90;50.00
21502;DHT22;27639;48.674;9.242;2024-02-21T09:48:14;13.00;50.00
21502;DHT22;27639;48.674;9.242;2024-02-21T09:50:45;13.10;49.60
21502;DHT22;27639;48.674;9.242;2024-02-21T09:53:12;13.10;49.60
21502;DHT22;27639;48.674;9.242;2024-02-21T09:55:43;13.30;49.50
21502;DHT22;27639;48.674;9.242;2024-02-21T09:58:09;13.30;48.70
21502;DHT22;27639;48.674;9.242;2024-02-21T10:00:36;13.40;48.70
21502;DHT22;27639;48.674;9.242;2024-02-21T10:03:02;13.50;48.60
21502;DHT22;27639;48.674;9.242;2024-02-21T10:05:33;13.60;48.50
21502;DHT22;27639;48.674;9.242;2024-02-21T10:07:59;13.70;48.20
21502;DHT22;27639;48.674;9.242;2024-02-21T10:10:25;13.90;48.40
21502;DHT22;27639;48.674;9.242;2024-02-21T10:12:52;14.00;48.50
21502;DHT22;27639;48.674;9.242;2024-02-21T10:15:21;14.10;48.20
21502;DHT22;27639;48.674;9.242;2024-02-21T10:17:58;14.20;47.90
21502;DHT22;27639;48.674;9.242;2024-02-21T10:20:24;14.40;47.70
21502;DHT22;27639;48.674;9.242;2024-02-21T10:23:04;14.40;47.60
21502;DHT22;27639;48.674;9.242;2024-02-21T10:25:34;14.50;47.40
21502;DHT22;27639;48.674;9.242;2024-02-21T10:27:59;14.50;46.40
21502;DHT22;27639;48.674;9.242;2024-02-21T10:30:25;14.50;46.90
21502;DHT22;27639;48.674;9.242;2024-02-21T10:32:51;14.60;46.60
21502;DHT22;27639;48.674;9.242;2024-02-21T10:35:33;14.60;46.50
21502;DHT22;27639;48.674;9.242;2024-02-21T10:37:59;14.70;46.60
21502;DHT22;27639;48.674;9.242;2024-02-21T10:40:29;14.80;46.00
21502;DHT22;27639;48.674;9.242;2024-02-21T10:42:57;15.00;46.10
21502;DHT22;27639;48.674;9.242;2024-02-21T10:45:31;15.00;45.70
21502;DHT22;27639;48.674;9.242;2024-02-21T10:48:11;15.00;46.00
21502;DHT22;27639;48.674;9.242;2024-02-21T10:56:26;15.30;45.80
21502;DHT22;27639;48.674;9.242;2024-02-21T10:58:53;15.40;45.10
21502;DHT22;27639;48.674;9.242;2024-02-21T11:01:20;15.40;44.20
21502;DHT22;27639;48.674;9.242;2024-02-21T11:03:48;15.50;44.30
21502;DHT22;27639;48.674;9.242;2024-02-21T11:06:16;15.60;44.00
21502;DHT22;27639;48.674;9.242;2024-02-21T11:08:42;15.60;43.50
21502;DHT22;27639;48.674;9.242;2024-02-21T11:11:08;15.70;43.60
21502;DHT22;27639;48.674;9.242;2024-02-21T11:13:37;15.80;43.30
21502;DHT22;27639;48.674;9.242;2024-02-21T11:16:21;15.80;43.30
21502;DHT22;27639;48.674;9.242;2024-02-21T11:18:47;15.90;43.10
21502;DHT22;27639;48.674;9.242;2024-02-21T11:21:12;16.00;43.20
21502;DHT22;27639;48.674;9.242;2024-02-21T11:23:38;16.00;42.80
21502;DHT22;27639;48.674;9.242;2024-02-21T11:26:18;16.00;42.60
21502;DHT22;27639;48.674;9.242;2024-02-21T11:28:59;15.90;42.10
21502;DHT22;27639;48.674;9.242;2024-02-21T11:31:26;16.00;42.10
21502;DHT22;27639;48.674;9.242;2024-02-21T11:33:54;16.00;42.30
21502;DHT22;27639;48.674;9.242;2024-02-21T11:36:27;16.10;42.10
21502;DHT22;27639;48.674;9.242;2024-02-21T11:38:53;16.10;41.00
21502;DHT22;27639;48.674;9.242;2024-02-21T11:41:19;16.00;41.20
21502;DHT22;27639;48.674;9.242;2024-02-21T11:43:48;16.10;40.90
21502;DHT22;27639;48.674;9.242;2024-02-21T11:46:14;16.20;40.00
21502;DHT22;27639;48.674;9.242;2024-02-21T11:48:41;16.10;39.40
21502;DHT22;27639;48.674;9.242;2024-02-21T11:51:06;16.10;40.00
21502;DHT22;27639;48.674;9.242;2024-02-21T11:53:32;16.20;40.20
21502;DHT22;27639;48.674;9.242;2024-02-21T11:55:58;16.30;40.30
21502;DHT22;27639;48.674;9.242;2024-02-21T11:58:24;16.30;39.60
21502;DHT22;27639;48.674;9.242;2024-02-21T12:00:52;16.20;39.20
21502;DHT22;27639;48.674;9.242;2024-02-21T12:03:17;16.20;39.20
21502;DHT22;27639;48.674;9.242;2024-02-21T12:05:43;16.20;39.20
21502;DHT22;27639;48.674;9.242;2024-02-21T12:08:09;16.20;39.60
21502;DHT22;27639;48.674;9.242;2024-02-21T12:10:36;16.30;39.50
21502;DHT22;27639;48.674;9.242;2024-02-21T12:13:10;16.40;39.60
21502;DHT22;27639;48.674;9.242;2024-02-21T12:15:38;16.30;39.30
21502;DHT22;27639;48.674;9.242;2024-02-21T12:18:05;16.30;38.90
21502;DHT22;27639;48.674;9.242;2024-02-21T12:20:31;16.20;38.30
21502;DHT22;27639;48.674;9.242;2024-02-21T12:23:00;16.20;38.70
21502;DHT22;27639;48.674;9.242;2024-02-21T12:25:26;16.20;38.90
21502;DHT22;27639;48.674;9.242;2024-02-21T12:27:52;16.30;38.90
21502;DHT22;27639;48.674;9.242;2024-02-21T12:30:18;16.40;39.00
21502;DHT22;27639;48.674;9.242;2024-02-21T12:32:46;16.40;38.80
21502;DHT22;27639;48.674;9.242;2024-02-21T12:35:11;16.50;38.60
21502;DHT22;27639;48.674;9.242;2024-02-21T12:37:37;16.50;38.60
21502;DHT22;27639;48.674;9.242;2024-02-21T12:40:06;16.50;38.00
21502;DHT22;27639;48.674;9.242;2024-02-21T12:42:35;16.50;38.50
21502;DHT22;27639;48.674;9.242;2024-02-21T12:45:02;16.50;38.40
21502;DHT22;27639;48.674;9.242;2024-02-21T12:47:28;16.50;38.50
21502;DHT22;27639;48.674;9.242;2024-02-21T12:49:54;16.60;38.50
21502;DHT22;27639;48.674;9.242;2024-02-21T12:52:19;16.50;38.30
21502;DHT22;27639;48.674;9.242;2024-02-21T12:54:45;16.60;38.30
21502;DHT22;27639;48.674;9.242;2024-02-21T12:57:11;16.60;38.30
21502;DHT22;27639;48.674;9.242;2024-02-21T12:59:36;16.70;38.40
21502;DHT22;27639;48.674;9.242;2024-02-21T13:02:02;16.80;38.50
21502;DHT22;27639;48.674;9.242;2024-02-21T13:04:28;16.80;38.40
21502;DHT22;27639;48.674;9.242;2024-02-21T13:06:53;16.70;38.10
21502;DHT22;27639;48.674;9.242;2024-02-21T13:09:20;16.70;38.30
21502;DHT22;27639;48.674;9.242;2024-02-21T13:11:46;16.80;38.70
21502;DHT22;27639;48.674;9.242;2024-02-21T13:14:12;16.80;38.70
21502;DHT22;27639;48.674;9.242;2024-02-21T13:16:38;16.90;38.80
21502;DHT22;27639;48.674;9.242;2024-02-21T13:19:07;16.90;38.60
21502;DHT22;27639;48.674;9.242;2024-02-21T13:21:35;16.90;38.80
21502;DHT22;27639;48.674;9.242;2024-02-21T13:24:01;17.00;38.40
21502;DHT22;27639;48.674;9.242;2024-02-21T13:26:27;16.90;38.50
21502;DHT22;27639;48.674;9.242;2024-02-21T13:28:53;17.00;38.70
21502;DHT22;27639;48.674;9.242;2024-02-21T13:31:19;17.00;38.30
21502;DHT22;27639;48.674;9.242;2024-02-21T13:33:44;17.00;38.60
21502;DHT22;27639;48.674;9.242;2024-02-21T13:36:10;17.10;38.30
21502;DHT22;27639;48.674;9.242;2024-02-21T13:38:36;17.10;37.80
21502;DHT22;27639;48.674;9.242;2024-02-21T13:41:06;17.10;38.00
21502;DHT22;27639;48.674;9.242;2024-02-21T13:43:33;17.20;38.10
21502;DHT22;27639;48.674;9.242;2024-02-21T13:46:01;17.20;38.00
21502;DHT22;27639;48.674;9.242;2024-02-21T13:48:28;17.20;37.90
21502;DHT22;27639;48.674;9.242;2024-02-21T13:50:54;17.30;38.00
21502;DHT22;27639;48.674;9.242;2024-02-21T13:53:20;17.20;37.60
21502;DHT22;27639;48.674;9.242;2024-02-21T13:55:46;17.20;37.80
21502;DHT22;27639;48.674;9.242;2024-02-21T13:58:12;17.30;37.60
21502;DHT22;27639;48.674;9.242;2024-02-21T14:00:38;17.20;37.20
21502;DHT22;27639;48.674;9.242;2024-02-21T14:03:04;17.20;37.60
21502;DHT22;27639;48.674;9.242;2024-02-21T14:05:29;17.30;38.00
21502;DHT22;27639;48.674;9.242;2024-02-21T14:07:55;17.30;38.00
21502;DHT22;27639;48.674;9.242;2024-02-21T14:10:21;17.30;38.00
21502;DHT22;27639;48.674;9.242;2024-02-21T14:12:47;17.40;37.70
21502;DHT22;27639;48.674;9.242;2024-02-21T14:15:17;17.30;37.60
21502;DHT22;27639;48.674;9.242;2024-02-21T14:17:43;17.30;37.70
21502;DHT22;27639;48.674;9.242;2024-02-21T14:20:09;17.30;37.90
21502;DHT22;27639;48.674;9.242;2024-02-21T14:22:35;17.40;37.90
21502;DHT22;27639;48.674;9.242;2024-02-21T14:25:03;17.30;38.00
21502;DHT22;27639;48.674;9.242;2024-02-21T14:27:31;17.40;38.30
21502;DHT22;27639;48.674;9.242;2024-02-21T14:29:56;17.40;38.20
21502;DHT22;27639;48.674;9.242;2024-02-21T14:32:22;17.50;38.20
21502;DHT22;27639;48.674;9.242;2024-02-21T14:34:47;17.40;38.00
21502;DHT22;27639;48.674;9.242;2024-02-21T14:37:14;17.40;38.00
21502;DHT22;27639;48.674;9.242;2024-02-21T14:39:41;17.40;38.20
21502;DHT22;27639;48.674;9.242;2024-02-21T14:42:06;17.40;38.30
21502;DHT22;27639;48.674;9.242;2024-02-21T14:44:35;17.40;38.30
21502;DHT22;27639;48.674;9.242;2024-02-21T14:47:00;17.40;37.90
21502;DHT22;27639;48.674;9.242;2024-02-21T14:49:26;17.40;38.10
21502;DHT22;27639;48.674;9.242;2024-02-21T14:51:53;17.40;38.20
21502;DHT22;27639;48.674;9.242;2024-02-21T14:54:20;17.40;38.10
21502;DHT22;27639;48.674;9.242;2024-02-21T14:56:45;17.40;38.40
21502;DHT22;27639;48.674;9.242;2024-02-21T14:59:12;17.40;38.40
21502;DHT22;27639;48.674;9.242;2024-02-21T15:01:38;17.50;38.60
21502;DHT22;27639;48.674;9.242;2024-02-21T15:04:04;17.40;38.60
21502;DHT22;27639;48.674;9.242;2024-02-21T15:06:29;17.40;38.60
21502;DHT22;27639;48.674;9.242;2024-02-21T15:08:57;17.50;38.80
21502;DHT22;27639;48.674;9.242;2024-02-21T15:11:22;17.50;39.00
21502;DHT22;27639;48.674;9.242;2024-02-21T15:13:48;17.50;39.20
21502;DHT22;27639;48.674;9.242;2024-02-21T15:16:14;17.60;39.20
21502;DHT22;27639;48.674;9.242;2024-02-21T15:18:41;17.50;38.90
21502;DHT22;27639;48.674;9.242;2024-02-21T15:21:07;17.50;38.80
21502;DHT22;27639;48.674;9.242;2024-02-21T15:23:36;17.50;38.90
21502;DHT22;27639;48.674;9.242;2024-02-21T15:26:01;17.40;39.20
21502;DHT22;27639;48.674;9.242;2024-02-21T15:28:27;17.40;39.20
21502;DHT22;27639;48.674;9.242;2024-02-21T15:30:54;17.30;39.40
21502;DHT22;27639;48.674;9.242;2024-02-21T15:33:20;17.30;39.50